Time;durP1;ratioP1;P1;durP2;ratioP2;P2;SDS_P1;SDS_P2;PMS_P1;PMS_P2;Temp;Humidity;BMP_temperature;BMP_pressure;BME280_temperature;BME280_humidity;BME280_pressure;Samples;Min_cycle;Max_cycle;Signal;HPM_P1;HPM_P2
2021/08/29 00:01:46;;;;;;;8.17;7.00;;;;;;;;;;5078344;28;20707;-72
2021/08/29 00:04:14;;;;;;;10.60;5.70;;;;;;;;;;5078435;28;20444;-72
2021/08/29 00:06:42;;;;;;;12.30;7.50;;;;;;;;;;5076770;28;20865;-72
2021/08/29 00:09:11;;;;;;;10.07;5.63;;;;;;;;;;5078317;28;20444;-73
2021/08/29 00:11:39;;;;;;;6.20;4.70;;;;;;;;;;5077161;28;20480;-72
2021/08/29 00:14:07;;;;;;;12.33;7.60;;;;;;;;;;5079184;28;20793;-70
2021/08/29 00:16:37;;;;;;;7.27;4.93;;;;;;;;;;5078590;28;20561;-73
2021/08/29 00:19:05;;;;;;;8.87;5.30;;;;;;;;;;5077925;28;20489;-73
2021/08/29 00:21:33;;;;;;;7.87;6.10;;;;;;;;;;5078068;28;20488;-73
2021/08/29 00:24:01;;;;;;;9.10;5.37;;;;;;;;;;5077622;28;20449;-73
2021/08/29 00:26:30;;;;;;;8.03;5.13;;;;;;;;;;5076928;28;20485;-72
2021/08/29 00:28:59;;;;;;;7.63;5.10;;;;;;;;;;5077052;28;20708;-72
2021/08/29 00:31:27;;;;;;;11.83;5.53;;;;;;;;;;5077726;28;20484;-72
2021/08/29 00:34:02;;;;;;;7.83;4.63;;;;;;;;;;5077913;28;20506;-72
2021/08/29 00:36:31;;;;;;;9.60;5.40;;;;;;;;;;5077233;28;20463;-73
2021/08/29 00:39:01;;;;;;;8.97;5.40;;;;;;;;;;5078674;28;20458;-73
2021/08/29 00:41:29;;;;;;;7.10;4.90;;;;;;;;;;5077759;28;20547;-73
2021/08/29 00:43:57;;;;;;;8.10;5.07;;;;;;;;;;5077147;28;20724;-73
2021/08/29 00:46:26;;;;;;;12.43;4.90;;;;;;;;;;5077556;28;20457;-72
2021/08/29 00:48:54;;;;;;;9.17;5.10;;;;;;;;;;5077492;28;20445;-72
2021/08/29 00:51:24;;;;;;;7.33;5.23;;;;;;;;;;5078085;28;20899;-73
2021/08/29 00:53:52;;;;;;;10.57;5.03;;;;;;;;;;5078340;28;20484;-72
2021/08/29 00:56:20;;;;;;;5.90;5.10;;;;;;;;;;5077495;28;20465;-72
2021/08/29 00:58:51;;;;;;;8.10;4.80;;;;;;;;;;5078032;28;20461;-72
2021/08/29 01:01:19;;;;;;;8.60;4.43;;;;;;;;;;5077596;28;20453;-72
2021/08/29 01:03:49;;;;;;;5.50;4.53;;;;;;;;;;5078967;28;20452;-72
2021/08/29 01:06:20;;;;;;;7.33;4.40;;;;;;;;;;5078257;28;20449;-73
2021/08/29 01:08:53;;;;;;;6.10;3.93;;;;;;;;;;5077634;28;20853;-72
2021/08/29 01:11:25;;;;;;;5.57;3.63;;;;;;;;;;5077868;28;20923;-72
2021/08/29 01:13:56;;;;;;;5.03;2.90;;;;;;;;;;5077311;28;20452;-72
2021/08/29 01:16:31;;;;;;;4.90;2.77;;;;;;;;;;5076957;28;20661;-72
2021/08/29 01:19:00;;;;;;;3.67;2.70;;;;;;;;;;5077325;28;20476;-72
2021/08/29 01:21:29;;;;;;;4.87;3.13;;;;;;;;;;5076635;28;20460;-72
2021/08/29 01:24:01;;;;;;;3.93;3.00;;;;;;;;;;5077486;28;20526;-72
2021/08/29 01:26:32;;;;;;;3.70;3.03;;;;;;;;;;5077231;28;20545;-72
2021/08/29 01:29:03;;;;;;;4.37;2.80;;;;;;;;;;5078192;28;20459;-72
2021/08/29 01:31:33;;;;;;;4.00;2.90;;;;;;;;;;5077801;28;20480;-72
2021/08/29 01:34:02;;;;;;;3.77;2.10;;;;;;;;;;5077955;28;20448;-73
2021/08/29 01:36:31;;;;;;;3.73;2.90;;;;;;;;;;5077979;28;20464;-72
2021/08/29 01:38:59;;;;;;;3.83;2.20;;;;;;;;;;5077766;28;20947;-72
2021/08/29 01:41:27;;;;;;;4.03;3.60;;;;;;;;;;5078403;28;20464;-72
2021/08/29 01:43:55;;;;;;;3.33;2.33;;;;;;;;;;5077343;28;20447;-72
2021/08/29 01:46:25;;;;;;;3.50;2.33;;;;;;;;;;5077231;28;20781;-73
2021/08/29 01:48:54;;;;;;;4.30;2.40;;;;;;;;;;5078338;28;20449;-73
2021/08/29 01:51:22;;;;;;;4.43;2.73;;;;;;;;;;5077160;28;20488;-72
2021/08/29 01:53:50;;;;;;;4.17;2.53;;;;;;;;;;5077994;28;20475;-72
2021/08/29 01:56:18;;;;;;;3.20;2.50;;;;;;;;;;5077823;28;20471;-73
2021/08/29 01:58:47;;;;;;;4.10;2.47;;;;;;;;;;5076725;28;20717;-73
2021/08/29 02:01:15;;;;;;;3.27;2.30;;;;;;;;;;5078683;28;20861;-72
2021/08/29 02:03:46;;;;;;;6.03;3.07;;;;;;;;;;5077050;28;20487;-72
2021/08/29 02:06:15;;;;;;;2.60;2.30;;;;;;;;;;5077485;28;20463;-73
2021/08/29 02:08:44;;;;;;;5.00;2.87;;;;;;;;;;5077084;28;20452;-72
2021/08/29 02:11:16;;;;;;;3.60;2.50;;;;;;;;;;5076231;28;20460;-73
2021/08/29 02:13:44;;;;;;;3.43;1.90;;;;;;;;;;5076664;28;21200;-72
2021/08/29 02:16:14;;;;;;;5.87;3.50;;;;;;;;;;5076687;28;20464;-72
2021/08/29 02:18:45;;;;;;;3.93;2.20;;;;;;;;;;5076931;28;20464;-73
2021/08/29 02:21:13;;;;;;;3.00;2.40;;;;;;;;;;5077256;28;20563;-72
2021/08/29 02:23:42;;;;;;;3.83;2.30;;;;;;;;;;5076685;28;20868;-72
2021/08/29 02:26:10;;;;;;;3.10;2.10;;;;;;;;;;5079736;28;20555;-72
2021/08/29 02:28:38;;;;;;;5.10;2.67;;;;;;;;;;5080363;28;20781;-72
2021/08/29 02:31:06;;;;;;;4.20;2.67;;;;;;;;;;5080791;28;20464;-72
2021/08/29 02:33:34;;;;;;;3.73;2.33;;;;;;;;;;5080364;28;20455;-72
2021/08/29 02:36:04;;;;;;;3.27;2.20;;;;;;;;;;5080208;28;20865;-72
2021/08/29 02:38:33;;;;;;;2.60;2.10;;;;;;;;;;5080910;28;20452;-72
2021/08/29 02:41:03;;;;;;;6.57;2.60;;;;;;;;;;5079547;28;20452;-72
2021/08/29 02:43:31;;;;;;;3.17;2.10;;;;;;;;;;5082705;28;20488;-73
2021/08/29 02:45:59;;;;;;;4.27;2.30;;;;;;;;;;5080692;28;20452;-73
2021/08/29 02:48:28;;;;;;;3.20;2.30;;;;;;;;;;5081002;28;20463;-72
2021/08/29 02:50:56;;;;;;;2.70;2.20;;;;;;;;;;5081589;28;20464;-72
2021/08/29 02:53:26;;;;;;;4.10;2.90;;;;;;;;;;5079634;28;20480;-72
2021/08/29 02:55:56;;;;;;;3.20;2.30;;;;;;;;;;5079776;28;20494;-73
2021/08/29 02:58:25;;;;;;;4.50;2.13;;;;;;;;;;5079251;28;20462;-72
2021/08/29 03:00:53;;;;;;;3.20;2.10;;;;;;;;;;5080775;28;20452;-72
2021/08/29 03:03:21;;;;;;;2.70;1.73;;;;;;;;;;5079803;28;20512;-72
2021/08/29 03:05:50;;;;;;;2.80;1.77;;;;;;;;;;5079896;28;20456;-72
2021/08/29 03:08:18;;;;;;;3.80;2.10;;;;;;;;;;5079937;28;20452;-72
2021/08/29 03:10:48;;;;;;;4.03;2.10;;;;;;;;;;5078678;28;20526;-71
2021/08/29 03:13:16;;;;;;;2.93;1.83;;;;;;;;;;5079886;28;20484;-72
2021/08/29 03:15:44;;;;;;;4.67;2.27;;;;;;;;;;5079162;28;20518;-72
2021/08/29 03:18:13;;;;;;;4.83;2.47;;;;;;;;;;5078495;28;20452;-72
2021/08/29 03:20:42;;;;;;;3.67;2.10;;;;;;;;;;5079558;28;20724;-72
2021/08/29 03:23:11;;;;;;;3.93;2.30;;;;;;;;;;5079052;28;20437;-73
2021/08/29 03:25:39;;;;;;;5.03;2.27;;;;;;;;;;5079542;28;20713;-72
2021/08/29 03:28:10;;;;;;;3.60;1.90;;;;;;;;;;5079807;28;20444;-72
2021/08/29 03:30:39;;;;;;;3.80;2.27;;;;;;;;;;5077930;28;20456;-72
2021/08/29 03:33:07;;;;;;;2.30;1.90;;;;;;;;;;5079894;28;20752;-72
2021/08/29 03:35:35;;;;;;;4.47;2.47;;;;;;;;;;5078604;28;20460;-72
2021/08/29 03:38:03;;;;;;;3.27;2.30;;;;;;;;;;5079819;28;20464;-72
2021/08/29 03:40:32;;;;;;;3.33;2.07;;;;;;;;;;5078083;28;20805;-72
2021/08/29 03:43:00;;;;;;;3.60;1.73;;;;;;;;;;5079072;28;20698;-72
2021/08/29 03:45:30;;;;;;;4.37;2.40;;;;;;;;;;5078365;28;20461;-72
2021/08/29 03:47:59;;;;;;;2.80;1.77;;;;;;;;;;5077315;28;20946;-72
2021/08/29 03:50:27;;;;;;;4.30;2.50;;;;;;;;;;5078367;28;20460;-71
2021/08/29 03:52:57;;;;;;;3.43;2.50;;;;;;;;;;5078014;28;20546;-72
2021/08/29 03:55:25;;;;;;;7.03;2.53;;;;;;;;;;5078432;28;20472;-72
2021/08/29 03:57:55;;;;;;;5.23;3.07;;;;;;;;;;5078709;28;20452;-72
2021/08/29 04:00:23;;;;;;;2.90;2.60;;;;;;;;;;5077692;28;20464;-72
2021/08/29 04:02:53;;;;;;;4.57;2.73;;;;;;;;;;5079347;28;20454;-71
2021/08/29 04:05:21;;;;;;;4.63;2.40;;;;;;;;;;5078986;28;20741;-72
2021/08/29 04:07:52;;;;;;;3.17;2.43;;;;;;;;;;5078926;28;20453;-72
2021/08/29 04:10:20;;;;;;;5.30;2.07;;;;;;;;;;5079282;28;20888;-72
2021/08/29 04:12:49;;;;;;;7.00;2.47;;;;;;;;;;5078043;28;20496;-71
2021/08/29 04:15:18;;;;;;;6.03;2.43;;;;;;;;;;5079096;28;20464;-71
2021/08/29 04:17:47;;;;;;;3.30;2.37;;;;;;;;;;5077930;28;20456;-72
2021/08/29 04:20:17;;;;;;;3.30;2.73;;;;;;;;;;5078655;28;20841;-72
2021/08/29 04:22:45;;;;;;;9.83;3.60;;;;;;;;;;5078016;28;20875;-72
2021/08/29 04:25:14;;;;;;;4.43;2.40;;;;;;;;;;5078337;28;20456;-72
2021/08/29 04:27:45;;;;;;;4.53;2.67;;;;;;;;;;5077335;28;20448;-72
2021/08/29 04:30:14;;;;;;;4.47;2.80;;;;;;;;;;5079210;28;20464;-72
2021/08/29 04:32:46;;;;;;;4.67;2.70;;;;;;;;;;5077474;28;20520;-72
2021/08/29 04:35:14;;;;;;;6.03;2.70;;;;;;;;;;5078494;28;20845;-71
2021/08/29 04:37:44;;;;;;;3.37;2.67;;;;;;;;;;5078398;28;20455;-72
2021/08/29 04:40:12;;;;;;;4.30;3.10;;;;;;;;;;5077818;28;20462;-71
2021/08/29 04:42:40;;;;;;;3.53;2.60;;;;;;;;;;5078282;28;20448;-72
2021/08/29 04:45:15;;;;;;;6.33;2.53;;;;;;;;;;5077708;28;20487;-72
2021/08/29 04:47:43;;;;;;;4.67;2.80;;;;;;;;;;5077554;28;20458;-72
2021/08/29 04:50:11;;;;;;;3.60;2.10;;;;;;;;;;5077412;28;20464;-72
2021/08/29 04:52:39;;;;;;;2.70;2.10;;;;;;;;;;5078104;28;20545;-72
2021/08/29 04:55:09;;;;;;;4.37;3.00;;;;;;;;;;5077494;28;20494;-73
2021/08/29 04:57:38;;;;;;;3.27;2.10;;;;;;;;;;5077233;28;20818;-71
2021/08/29 05:00:06;;;;;;;3.33;2.57;;;;;;;;;;5078095;28;20827;-72
2021/08/29 05:02:35;;;;;;;4.23;1.93;;;;;;;;;;5075758;28;20445;-71
2021/08/29 05:05:05;;;;;;;2.90;1.90;;;;;;;;;;5077209;28;20468;-72
2021/08/29 05:07:34;;;;;;;2.97;2.07;;;;;;;;;;5077402;28;20448;-73
2021/08/29 05:10:02;;;;;;;3.47;1.93;;;;;;;;;;5077143;28;20471;-72
2021/08/29 05:12:32;;;;;;;3.83;2.00;;;;;;;;;;5077684;28;20933;-72
2021/08/29 05:15:02;;;;;;;4.80;2.13;;;;;;;;;;5077354;28;20783;-72
2021/08/29 05:17:30;;;;;;;4.80;2.00;;;;;;;;;;5076863;28;20444;-72
2021/08/29 05:19:58;;;;;;;4.20;2.50;;;;;;;;;;5077048;28;20811;-71
2021/08/29 05:22:26;;;;;;;3.80;2.50;;;;;;;;;;5076760;28;20502;-71
2021/08/29 05:24:54;;;;;;;3.93;2.47;;;;;;;;;;5077454;28;20460;-72
2021/08/29 05:27:22;;;;;;;4.23;2.50;;;;;;;;;;5077986;28;20891;-71
2021/08/29 05:29:52;;;;;;;3.60;2.77;;;;;;;;;;5077183;28;20578;-72
2021/08/29 05:32:21;;;;;;;3.40;2.00;;;;;;;;;;5078294;28;20482;-73
2021/08/29 05:34:49;;;;;;;2.03;1.53;;;;;;;;;;5077996;28;20794;-72
2021/08/29 05:37:17;;;;;;;3.00;2.00;;;;;;;;;;5078037;28;20455;-73
2021/08/29 05:39:47;;;;;;;3.57;2.17;;;;;;;;;;5078407;28;20468;-73
2021/08/29 05:42:15;;;;;;;2.90;2.10;;;;;;;;;;5077874;28;20448;-73
2021/08/29 05:44:43;;;;;;;3.00;2.27;;;;;;;;;;5077654;28;20457;-73
2021/08/29 05:47:13;;;;;;;3.67;2.27;;;;;;;;;;5077420;28;20463;-72
2021/08/29 05:49:41;;;;;;;3.30;2.20;;;;;;;;;;5078052;28;20467;-72
2021/08/29 05:52:09;;;;;;;4.73;2.10;;;;;;;;;;5077768;28;20456;-73
2021/08/29 05:54:38;;;;;;;2.23;1.73;;;;;;;;;;5076982;28;20452;-73
2021/08/29 05:57:06;;;;;;;3.23;2.03;;;;;;;;;;5078118;28;20460;-72
2021/08/29 05:59:34;;;;;;;3.30;1.53;;;;;;;;;;5080207;28;20463;-72
2021/08/29 06:02:02;;;;;;;4.33;1.90;;;;;;;;;;5081889;28;20514;-72
2021/08/29 06:04:32;;;;;;;2.60;1.50;;;;;;;;;;5081271;28;20478;-72
2021/08/29 06:07:02;;;;;;;2.63;1.93;;;;;;;;;;5080066;28;20567;-72
2021/08/29 06:09:30;;;;;;;2.60;1.80;;;;;;;;;;5080362;28;20455;-72
2021/08/29 06:11:58;;;;;;;2.50;1.63;;;;;;;;;;5080669;28;20456;-72
2021/08/29 06:14:29;;;;;;;4.13;1.97;;;;;;;;;;5080199;28;20567;-72
2021/08/29 06:16:57;;;;;;;2.50;1.50;;;;;;;;;;5080899;28;20541;-72
2021/08/29 06:19:25;;;;;;;2.13;1.80;;;;;;;;;;5080676;28;20571;-73
2021/08/29 06:21:55;;;;;;;2.50;1.50;;;;;;;;;;5079851;28;20456;-72
2021/08/29 06:24:22;;;;;;;2.10;1.80;;;;;;;;;;5080430;28;20517;-72
2021/08/29 06:26:50;;;;;;;2.43;1.70;;;;;;;;;;5080080;28;20464;-73
2021/08/29 06:29:19;;;;;;;2.10;1.27;;;;;;;;;;5079599;28;20873;-73
2021/08/29 06:31:47;;;;;;;2.43;1.53;;;;;;;;;;5079610;28;20748;-72
2021/08/29 06:34:15;;;;;;;2.20;1.17;;;;;;;;;;5079341;28;20484;-73
2021/08/29 06:36:44;;;;;;;2.90;1.17;;;;;;;;;;5079827;28;20460;-72
2021/08/29 06:39:13;;;;;;;2.60;1.37;;;;;;;;;;5079699;28;20452;-73
2021/08/29 06:41:41;;;;;;;2.43;1.50;;;;;;;;;;5079639;28;20464;-72
2021/08/29 06:44:09;;;;;;;1.87;1.13;;;;;;;;;;5079242;28;20451;-73
2021/08/29 06:46:37;;;;;;;4.17;1.70;;;;;;;;;;5079375;28;20500;-72
2021/08/29 06:49:04;;;;;;;2.07;1.40;;;;;;;;;;5078579;28;21077;-72
2021/08/29 06:51:32;;;;;;;2.50;1.63;;;;;;;;;;5079160;28;20865;-72
2021/08/29 06:54:00;;;;;;;3.47;1.43;;;;;;;;;;5079129;28;20499;-72
2021/08/29 06:56:30;;;;;;;2.20;1.30;;;;;;;;;;5079051;28;20466;-72
2021/08/29 06:58:58;;;;;;;1.90;1.20;;;;;;;;;;5079355;28;20464;-72
2021/08/29 07:01:25;;;;;;;1.80;1.30;;;;;;;;;;5078817;28;20445;-71
2021/08/29 07:03:53;;;;;;;3.43;1.47;;;;;;;;;;5078905;28;20810;-72
2021/08/29 07:06:27;;;;;;;2.40;1.17;;;;;;;;;;5078919;28;20914;-72
2021/08/29 07:08:55;;;;;;;2.03;1.20;;;;;;;;;;5079293;28;20749;-71
2021/08/29 07:11:24;;;;;;;1.70;1.10;;;;;;;;;;5078330;28;20459;-72
2021/08/29 07:13:53;;;;;;;10.70;2.13;;;;;;;;;;5077840;28;20517;-71
2021/08/29 07:16:21;;;;;;;1.50;1.20;;;;;;;;;;5078063;28;20452;-73
2021/08/29 07:18:48;;;;;;;3.10;2.50;;;;;;;;;;5078087;28;20472;-72
2021/08/29 07:21:17;;;;;;;2.30;1.17;;;;;;;;;;5077872;28;20518;-72
2021/08/29 07:23:45;;;;;;;2.17;1.43;;;;;;;;;;5077866;28;20536;-72
2021/08/29 07:26:16;;;;;;;1.93;1.33;;;;;;;;;;5078380;28;20449;-72
2021/08/29 07:28:44;;;;;;;2.07;1.17;;;;;;;;;;5077563;28;20471;-72
2021/08/29 07:31:14;;;;;;;2.00;1.10;;;;;;;;;;5077918;28;20835;-72
2021/08/29 07:33:42;;;;;;;2.20;1.00;;;;;;;;;;5078316;28;20550;-72
2021/08/29 07:36:10;;;;;;;2.77;2.30;;;;;;;;;;5077169;28;20468;-72
2021/08/29 07:38:38;;;;;;;2.70;2.07;;;;;;;;;;5077024;28;20499;-71
2021/08/29 07:41:06;;;;;;;1.70;1.30;;;;;;;;;;5077387;28;20452;-72
2021/08/29 07:43:33;;;;;;;2.17;1.57;;;;;;;;;;5077070;28;20451;-72
2021/08/29 07:46:01;;;;;;;2.27;1.33;;;;;;;;;;5077884;28;20496;-72
2021/08/29 07:48:34;;;;;;;3.20;1.97;;;;;;;;;;5076711;28;20455;-72
2021/08/29 07:51:02;;;;;;;2.30;1.10;;;;;;;;;;5077012;28;20860;-72
2021/08/29 07:53:31;;;;;;;2.00;1.20;;;;;;;;;;5077416;28;20492;-72
2021/08/29 07:55:59;;;;;;;3.20;1.60;;;;;;;;;;5078345;28;20525;-72
2021/08/29 07:58:27;;;;;;;1.83;1.20;;;;;;;;;;5077716;28;20957;-72
2021/08/29 08:00:55;;;;;;;2.63;1.63;;;;;;;;;;5077864;28;20471;-72
2021/08/29 08:03:23;;;;;;;1.87;1.13;;;;;;;;;;5076962;28;20484;-72
2021/08/29 08:05:53;;;;;;;2.47;1.57;;;;;;;;;;5076634;28;20445;-72
2021/08/29 08:08:23;;;;;;;2.23;1.60;;;;;;;;;;5077239;28;20475;-72
2021/08/29 08:10:51;;;;;;;3.73;2.43;;;;;;;;;;5076494;28;20491;-71
2021/08/29 08:13:30;;;;;;;2.60;1.70;;;;;;;;;;5077302;28;20557;-72
2021/08/29 08:15:58;;;;;;;2.47;1.73;;;;;;;;;;5077315;28;20457;-71
2021/08/29 08:18:26;;;;;;;4.50;1.37;;;;;;;;;;5076500;28;20857;-71
2021/08/29 08:20:57;;;;;;;1.80;1.23;;;;;;;;;;5077346;28;20503;-70
2021/08/29 08:23:28;;;;;;;2.07;1.43;;;;;;;;;;5077552;28;20843;-71
2021/08/29 08:25:56;;;;;;;7.13;4.83;;;;;;;;;;5076947;28;20673;-71
2021/08/29 08:28:26;;;;;;;2.40;1.53;;;;;;;;;;5076266;28;20456;-73
2021/08/29 08:30:57;;;;;;;1.63;1.10;;;;;;;;;;5075889;28;20484;-72
2021/08/29 08:33:25;;;;;;;2.63;1.37;;;;;;;;;;5076190;28;20500;-72
2021/08/29 08:35:53;;;;;;;1.73;0.93;;;;;;;;;;5076268;28;20448;-71
2021/08/29 08:38:26;;;;;;;1.80;1.10;;;;;;;;;;5079470;28;20452;-72
2021/08/29 08:40:57;;;;;;;4.80;1.60;;;;;;;;;;5097291;28;20483;-72
2021/08/29 08:43:28;;;;;;;1.93;1.13;;;;;;;;;;5097464;28;20459;-71
2021/08/29 08:45:57;;;;;;;1.33;0.70;;;;;;;;;;5097392;28;20464;-71
2021/08/29 08:48:28;;;;;;;1.63;1.10;;;;;;;;;;5097591;28;20467;-72
2021/08/29 08:50:57;;;;;;;2.53;1.80;;;;;;;;;;5097378;28;20448;-72
2021/08/29 08:53:29;;;;;;;1.30;0.80;;;;;;;;;;5096818;28;20491;-72
2021/08/29 08:55:57;;;;;;;1.70;0.93;;;;;;;;;;5096510;28;20529;-70
2021/08/29 08:58:26;;;;;;;1.40;0.93;;;;;;;;;;5096353;28;20851;-71
2021/08/29 09:00:54;;;;;;;2.40;1.27;;;;;;;;;;5097115;28;20458;-71
2021/08/29 09:03:22;;;;;;;3.00;0.80;;;;;;;;;;5094922;28;20451;-71
2021/08/29 09:05:50;;;;;;;16.40;12.37;;;;;;;;;;5095741;28;20986;-70
2021/08/29 09:08:18;;;;;;;2.30;1.43;;;;;;;;;;5094719;28;20487;-70
2021/08/29 09:10:47;;;;;;;1.37;0.80;;;;;;;;;;5095367;28;20456;-70
2021/08/29 09:13:21;;;;;;;1.73;1.17;;;;;;;;;;5096075;28;21007;-70
2021/08/29 09:15:49;;;;;;;1.40;0.70;;;;;;;;;;5094534;28;20843;-71
2021/08/29 09:18:17;;;;;;;1.80;0.90;;;;;;;;;;5096134;28;20475;-71
2021/08/29 09:20:45;;;;;;;1.50;0.90;;;;;;;;;;5094992;28;20452;-71
2021/08/29 09:23:13;;;;;;;1.63;1.10;;;;;;;;;;5096890;28;20451;-71
2021/08/29 09:25:43;;;;;;;1.40;0.80;;;;;;;;;;5096128;28;20468;-71
2021/08/29 09:28:16;;;;;;;1.47;0.83;;;;;;;;;;5095552;28;20467;-71
2021/08/29 09:30:46;;;;;;;1.83;1.10;;;;;;;;;;5097105;28;20788;-71
2021/08/29 09:33:14;;;;;;;1.43;0.80;;;;;;;;;;5096546;28;20458;-71
2021/08/29 09:35:42;;;;;;;2.10;1.20;;;;;;;;;;5095055;28;20743;-71
2021/08/29 09:38:12;;;;;;;1.83;1.20;;;;;;;;;;5097225;28;20485;-70
2021/08/29 09:40:41;;;;;;;2.20;1.53;;;;;;;;;;5095253;28;20921;-71
2021/08/29 09:43:09;;;;;;;1.33;1.23;;;;;;;;;;5094308;28;20508;-71
2021/08/29 09:45:45;;;;;;;1.53;0.73;;;;;;;;;;5093842;28;20500;-71
2021/08/29 09:48:15;;;;;;;2.00;0.70;;;;;;;;;;5094810;28;20517;-70
2021/08/29 09:50:45;;;;;;;1.53;0.80;;;;;;;;;;5095267;28;20527;-69
2021/08/29 09:53:14;;;;;;;1.77;1.23;;;;;;;;;;5094227;28;20524;-71
2021/08/29 09:55:44;;;;;;;1.40;0.90;;;;;;;;;;5096075;28;20490;-71
2021/08/29 09:58:22;;;;;;;1.67;1.10;;;;;;;;;;5097092;28;20455;-71
2021/08/29 10:01:12;;;;;;;1.97;1.27;;;;;;;;;;5096406;28;20866;-72
2021/08/29 10:03:41;;;;;;;1.73;1.10;;;;;;;;;;5096319;28;20443;-71
2021/08/29 10:06:17;;;;;;;1.70;1.10;;;;;;;;;;5095111;28;20544;-71
2021/08/29 10:08:46;;;;;;;1.37;0.73;;;;;;;;;;5096045;28;20541;-70
2021/08/29 10:11:14;;;;;;;1.33;0.83;;;;;;;;;;5092951;28;20510;-72
2021/08/29 10:13:42;;;;;;;1.33;0.87;;;;;;;;;;5095361;28;20444;-72
2021/08/29 10:16:12;;;;;;;1.27;0.67;;;;;;;;;;5096177;28;20501;-72
2021/08/29 10:18:40;;;;;;;1.87;1.10;;;;;;;;;;5096740;28;20517;-71
2021/08/29 10:21:17;;;;;;;1.70;0.90;;;;;;;;;;5096055;28;20451;-71
2021/08/29 10:23:46;;;;;;;1.50;0.80;;;;;;;;;;5094669;28;20462;-70
2021/08/29 10:26:14;;;;;;;1.97;1.30;;;;;;;;;;5096115;28;20455;-71
2021/08/29 10:28:45;;;;;;;1.57;0.83;;;;;;;;;;5092536;28;20497;-71
2021/08/29 10:31:17;;;;;;;2.43;1.90;;;;;;;;;;5087595;28;20552;-72
2021/08/29 10:33:47;;;;;;;1.60;1.00;;;;;;;;;;5095849;28;20466;-70
2021/08/29 10:36:18;;;;;;;2.07;1.43;;;;;;;;;;5095566;28;20802;-71
2021/08/29 10:38:47;;;;;;;2.17;1.63;;;;;;;;;;5095313;28;20482;-72
2021/08/29 10:41:16;;;;;;;4.13;1.33;;;;;;;;;;5095213;28;20463;-72
2021/08/29 10:43:44;;;;;;;1.67;1.07;;;;;;;;;;5095556;28;20737;-72
2021/08/29 10:46:17;;;;;;;1.83;1.33;;;;;;;;;;5096838;28;20723;-71
2021/08/29 10:48:49;;;;;;;2.63;1.80;;;;;;;;;;5099054;28;20502;-72
2021/08/29 10:51:31;;;;;;;2.67;1.40;;;;;;;;;;5098273;28;20862;-71
2021/08/29 10:54:01;;;;;;;2.37;1.17;;;;;;;;;;5097867;28;20789;-72
2021/08/29 10:56:32;;;;;;;2.93;2.03;;;;;;;;;;5078451;28;20944;-72
2021/08/29 10:59:18;;;;;;;2.23;1.77;;;;;;;;;;5080245;28;20608;-70
2021/08/29 11:01:48;;;;;;;1.60;1.10;;;;;;;;;;5094165;28;20453;-70
2021/08/29 11:04:35;;;;;;;2.20;1.30;;;;;;;;;;5079531;28;20806;-71
2021/08/29 11:07:03;;;;;;;1.57;1.13;;;;;;;;;;5097509;28;20513;-70
2021/08/29 11:09:47;;;;;;;2.00;1.30;;;;;;;;;;5085843;28;20903;-71
2021/08/29 11:12:32;;;;;;;2.07;1.40;;;;;;;;;;5097645;28;20447;-71
2021/08/29 11:15:03;;;;;;;2.50;1.73;;;;;;;;;;5096152;28;20522;-71
2021/08/29 11:17:33;;;;;;;1.93;0.70;;;;;;;;;;5096941;28;20451;-70
2021/08/29 11:20:13;;;;;;;1.80;1.13;;;;;;;;;;5097684;28;20533;-70
2021/08/29 11:22:42;;;;;;;1.90;1.20;;;;;;;;;;5096883;28;20489;-72
2021/08/29 11:25:25;;;;;;;3.27;1.13;;;;;;;;;;5098575;28;20443;-71
2021/08/29 11:27:58;;;;;;;1.53;1.00;;;;;;;;;;5094884;28;20980;-71
2021/08/29 11:30:27;;;;;;;1.67;1.00;;;;;;;;;;5097540;28;20454;-71
2021/08/29 11:33:01;;;;;;;1.97;1.27;;;;;;;;;;5097427;28;20455;-71
2021/08/29 11:35:30;;;;;;;2.17;1.67;;;;;;;;;;5097845;28;20835;-71
2021/08/29 11:38:03;;;;;;;4.43;3.73;;;;;;;;;;5096608;28;20444;-70
2021/08/29 11:40:46;;;;;;;2.10;1.43;;;;;;;;;;5097618;28;20546;-71
2021/08/29 11:43:25;;;;;;;2.47;1.40;;;;;;;;;;5092008;28;20440;-71
2021/08/29 11:45:59;;;;;;;3.80;1.60;;;;;;;;;;5092929;28;20906;-70
2021/08/29 11:48:31;;;;;;;2.70;1.83;;;;;;;;;;5084975;28;20498;-70
2021/08/29 11:50:59;;;;;;;3.13;2.63;;;;;;;;;;5093019;28;20539;-70
2021/08/29 11:53:28;;;;;;;2.33;2.13;;;;;;;;;;5096412;28;20486;-70
2021/08/29 11:56:01;;;;;;;3.37;2.23;;;;;;;;;;5097047;28;20541;-72
2021/08/29 11:58:29;;;;;;;2.50;1.73;;;;;;;;;;5094359;28;20554;-72
2021/08/29 12:01:03;;;;;;;4.67;3.30;;;;;;;;;;5093533;28;20870;-72
2021/08/29 12:03:40;;;;;;;4.10;2.20;;;;;;;;;;5091132;28;20464;-72
2021/08/29 12:06:10;;;;;;;4.20;3.40;;;;;;;;;;5087729;28;20451;-72
2021/08/29 12:08:48;;;;;;;4.90;3.53;;;;;;;;;;5088174;28;20525;-71
2021/08/29 12:11:16;;;;;;;5.43;4.00;;;;;;;;;;5086622;28;20443;-71
2021/08/29 12:13:44;;;;;;;7.27;4.83;;;;;;;;;;5096872;28;20454;-70
2021/08/29 12:16:13;;;;;;;6.33;4.77;;;;;;;;;;5095666;28;20479;-73
2021/08/29 12:18:43;;;;;;;6.27;4.10;;;;;;;;;;5096211;28;20891;-72
2021/08/29 12:21:12;;;;;;;4.67;3.87;;;;;;;;;;5093612;28;20462;-72
2021/08/29 12:23:43;;;;;;;5.77;3.43;;;;;;;;;;5083890;28;20444;-72
2021/08/29 12:26:19;;;;;;;6.27;4.77;;;;;;;;;;5087059;28;20451;-72
2021/08/29 12:29:00;;;;;;;5.90;4.00;;;;;;;;;;5083670;28;20459;-72
2021/08/29 12:31:37;;;;;;;5.70;4.60;;;;;;;;;;5095855;28;20447;-72
2021/08/29 12:34:07;;;;;;;6.20;4.50;;;;;;;;;;5096530;28;20520;-71
2021/08/29 12:36:38;;;;;;;7.80;3.73;;;;;;;;;;5096538;28;20548;-71
2021/08/29 12:39:12;;;;;;;10.13;5.50;;;;;;;;;;5096329;28;20467;-72
2021/08/29 12:41:42;;;;;;;5.23;4.03;;;;;;;;;;5096515;28;20497;-72
2021/08/29 12:44:11;;;;;;;5.77;4.70;;;;;;;;;;5097167;28;20456;-73
2021/08/29 12:46:55;;;;;;;8.10;5.77;;;;;;;;;;5091441;28;20448;-72
2021/08/29 12:49:29;;;;;;;6.90;5.40;;;;;;;;;;5096710;28;20466;-72
2021/08/29 12:52:01;;;;;;;7.37;3.60;;;;;;;;;;5096360;28;20451;-72
2021/08/29 12:54:29;;;;;;;4.40;2.97;;;;;;;;;;5096795;28;20463;-71
2021/08/29 12:57:00;;;;;;;5.33;3.70;;;;;;;;;;5095489;28;21003;-71
2021/08/29 12:59:30;;;;;;;8.83;5.70;;;;;;;;;;5076856;28;20486;-72
2021/08/29 13:01:58;;;;;;;4.90;3.97;;;;;;;;;;5095397;28;20448;-72
2021/08/29 13:04:34;;;;;;;5.33;3.70;;;;;;;;;;5096854;28;20869;-71
2021/08/29 13:07:13;;;;;;;6.33;4.20;;;;;;;;;;5096358;28;20435;-72
2021/08/29 13:09:45;;;;;;;4.93;3.97;;;;;;;;;;5096362;28;20471;-71
2021/08/29 13:12:30;;;;;;;4.77;3.67;;;;;;;;;;5095975;28;20483;-71
2021/08/29 13:15:01;;;;;;;8.83;3.50;;;;;;;;;;5094916;28;20474;-71
2021/08/29 13:17:30;;;;;;;5.37;4.70;;;;;;;;;;5095498;28;20455;-71
2021/08/29 13:20:15;;;;;;;5.20;3.70;;;;;;;;;;5095886;28;20452;-71
2021/08/29 13:22:48;;;;;;;4.77;3.70;;;;;;;;;;5093715;28;20516;-71
2021/08/29 13:25:22;;;;;;;7.23;4.90;;;;;;;;;;5095169;28;20956;-71
2021/08/29 13:27:51;;;;;;;4.60;3.30;;;;;;;;;;5095105;28;21119;-71
2021/08/29 13:30:23;;;;;;;7.37;4.87;;;;;;;;;;5089126;28;20460;-71
2021/08/29 13:32:58;;;;;;;9.50;4.73;;;;;;;;;;5083425;28;20468;-71
2021/08/29 13:35:35;;;;;;;6.97;4.97;;;;;;;;;;5089026;28;20483;-71
2021/08/29 13:38:06;;;;;;;9.10;6.67;;;;;;;;;;5088778;28;20446;-75
2021/08/29 13:40:40;;;;;;;9.57;6.23;;;;;;;;;;5095171;28;20466;-72
2021/08/29 13:43:09;;;;;;;8.87;6.67;;;;;;;;;;5095093;28;20462;-70
2021/08/29 13:45:37;;;;;;;8.33;6.90;;;;;;;;;;5085557;28;20741;-70
2021/08/29 13:48:06;;;;;;;10.63;7.60;;;;;;;;;;5086348;28;20590;-70
2021/08/29 13:50:36;;;;;;;9.70;7.47;;;;;;;;;;5094442;28;20508;-71
2021/08/29 13:53:05;;;;;;;11.03;7.50;;;;;;;;;;5093752;28;20489;-71
2021/08/29 13:55:35;;;;;;;10.00;7.17;;;;;;;;;;5094701;28;20991;-72
2021/08/29 13:58:04;;;;;;;11.87;6.33;;;;;;;;;;5089370;28;20534;-72
2021/08/29 14:00:33;;;;;;;13.97;10.10;;;;;;;;;;5078138;28;21045;-70
2021/08/29 14:03:02;;;;;;;10.83;7.73;;;;;;;;;;5085508;28;20456;-73
2021/08/29 14:05:31;;;;;;;13.10;7.93;;;;;;;;;;5082896;28;20444;-72
2021/08/29 14:08:01;;;;;;;12.63;8.57;;;;;;;;;;5094402;28;20544;-71
2021/08/29 14:10:30;;;;;;;11.47;8.93;;;;;;;;;;5094563;28;20444;-70
2021/08/29 14:12:58;;;;;;;10.60;8.43;;;;;;;;;;5095410;28;20460;-71
2021/08/29 14:15:26;;;;;;;12.13;7.77;;;;;;;;;;5093906;28;20511;-71
2021/08/29 14:17:54;;;;;;;10.67;8.37;;;;;;;;;;5093027;28;20562;-71
2021/08/29 14:20:22;;;;;;;12.93;9.67;;;;;;;;;;5096012;28;20463;-71
2021/08/29 14:22:51;;;;;;;12.07;8.10;;;;;;;;;;5098851;28;20455;-71
2021/08/29 14:25:22;;;;;;;12.13;8.93;;;;;;;;;;5097538;28;20453;-71
2021/08/29 14:27:53;;;;;;;12.00;8.20;;;;;;;;;;5099392;28;20945;-71
2021/08/29 14:30:31;;;;;;;15.37;9.80;;;;;;;;;;5095187;28;20539;-71
2021/08/29 14:33:01;;;;;;;22.57;14.97;;;;;;;;;;5095670;28;20472;-71
2021/08/29 14:35:32;;;;;;;12.80;9.13;;;;;;;;;;5099213;28;20479;-72
2021/08/29 14:38:02;;;;;;;10.63;7.97;;;;;;;;;;5100806;28;20463;-71
2021/08/29 14:40:37;;;;;;;12.10;7.60;;;;;;;;;;5100971;28;20855;-72
2021/08/29 14:43:15;;;;;;;12.03;9.67;;;;;;;;;;5098196;28;20489;-70
2021/08/29 14:45:48;;;;;;;11.13;7.67;;;;;;;;;;5099623;28;20463;-71
2021/08/29 14:48:17;;;;;;;11.90;7.80;;;;;;;;;;5098784;28;20732;-70
2021/08/29 14:50:48;;;;;;;9.80;7.43;;;;;;;;;;5094538;28;20447;-73
2021/08/29 14:53:16;;;;;;;10.13;7.57;;;;;;;;;;5095158;28;20439;-71
2021/08/29 14:55:46;;;;;;;12.20;9.10;;;;;;;;;;5098401;28;20480;-72
2021/08/29 14:58:15;;;;;;;7.97;6.47;;;;;;;;;;5097763;28;20455;-71